createdAt,value
2022-09-13T00:02:03.298Z,100.00
2022-09-13T00:05:04.980Z,100.00
2022-09-13T00:08:06.882Z,100.00
2022-09-13T00:11:12.875Z,100.00
2022-09-13T00:14:14.358Z,99.67
2022-09-13T00:17:15.862Z,99.51
2022-09-13T00:20:17.478Z,98.82
2022-09-13T00:23:19.161Z,97.82
2022-09-13T00:26:21.618Z,97.22
2022-09-13T00:29:23.103Z,97.64
2022-09-13T00:32:24.597Z,98.07
2022-09-13T00:35:26.082Z,97.89
2022-09-13T00:38:27.586Z,98.63
2022-09-13T00:41:29.089Z,98.27
2022-09-13T00:44:48.819Z,98.08
2022-09-13T00:48:00.585Z,96.98
2022-09-13T00:51:02.358Z,96.83
2022-09-13T00:54:03.933Z,95.67
2022-09-13T00:57:05.554Z,95.55
2022-09-13T01:00:14.078Z,95.40
2022-09-13T01:03:15.803Z,95.89
2022-09-13T01:06:24.043Z,95.60
2022-09-13T01:09:25.583Z,95.35
2022-09-13T01:12:32.818Z,95.39
2022-09-13T01:15:34.389Z,95.72
2022-09-13T01:18:35.921Z,96.62
2022-09-13T01:21:49.697Z,97.03
2022-09-13T01:24:57.195Z,97.04
2022-09-13T01:28:17.540Z,96.71
2022-09-13T01:31:37.642Z,96.53
2022-09-13T01:34:49.572Z,97.25
2022-09-13T01:38:11.244Z,97.28
2022-09-13T01:41:12.720Z,97.61
2022-09-13T01:44:14.297Z,98.17
2022-09-13T01:47:15.969Z,99.24
2022-09-13T01:50:17.524Z,99.12
2022-09-13T01:53:22.531Z,99.08
2022-09-13T01:56:28.755Z,99.07
2022-09-13T01:59:43.550Z,99.25
2022-09-13T02:02:45.077Z,97.99
2022-09-13T02:05:56.949Z,96.75
2022-09-13T02:09:00.958Z,96.28
2022-09-13T02:12:10.916Z,96.02
2022-09-13T02:15:14.924Z,96.04
2022-09-13T02:18:18.270Z,95.66
2022-09-13T02:21:24.289Z,95.62
2022-09-13T02:24:36.807Z,95.38
2022-09-13T02:27:38.300Z,95.55
2022-09-13T02:30:40.874Z,96.34
2022-09-13T02:33:44.290Z,96.40
2022-09-13T02:36:45.905Z,96.84
2022-09-13T02:39:48.241Z,96.32
2022-09-13T02:43:00.536Z,96.05
2022-09-13T02:46:11.198Z,96.66
2022-09-13T02:49:27.005Z,96.93
2022-09-13T02:52:28.605Z,96.35
2022-09-13T02:55:33.658Z,96.31
2022-09-13T02:58:41.910Z,96.69
2022-09-13T03:02:03.748Z,96.74
2022-09-13T03:05:05.570Z,98.35
2022-09-13T03:08:07.705Z,98.97
2022-09-13T03:11:12.134Z,98.69
2022-09-13T03:14:32.393Z,98.59
2022-09-13T03:17:54.685Z,98.38
2022-09-13T03:21:28.514Z,98.48
2022-09-13T03:24:41.985Z,98.10
2022-09-13T03:27:46.276Z,97.39
2022-09-13T03:30:50.566Z,97.58
2022-09-13T03:34:18.445Z,98.00
2022-09-13T03:37:24.647Z,98.73
2022-09-13T03:40:28.729Z,98.86
2022-09-13T03:43:37.249Z,98.93
2022-09-13T03:46:39.917Z,98.30
2022-09-13T03:49:41.476Z,97.69
2022-09-13T03:52:46.400Z,98.00
2022-09-13T03:55:48.175Z,98.31
2022-09-13T03:58:50.196Z,98.54
2022-09-13T04:01:52.399Z,99.20
2022-09-13T04:04:53.978Z,100.00
2022-09-13T04:07:55.553Z,100.00
2022-09-13T04:10:57.142Z,100.00
2022-09-13T04:13:59.492Z,100.00
2022-09-13T04:17:01.079Z,99.72
2022-09-13T04:20:02.895Z,99.88
2022-09-13T04:23:04.918Z,99.77
2022-09-13T04:26:06.657Z,98.75
2022-09-13T04:29:08.246Z,96.93
2022-09-13T04:32:12.006Z,96.36
2022-09-13T04:35:13.528Z,96.30
2022-09-13T04:38:15.086Z,96.21
2022-09-13T04:41:17.574Z,96.27
2022-09-13T04:44:20.576Z,96.23
2022-09-13T04:47:22.643Z,96.92
2022-09-13T04:50:24.516Z,96.78
2022-09-13T04:53:26.200Z,96.72
2022-09-13T04:56:27.794Z,96.08
2022-09-13T04:59:29.349Z,95.19
2022-09-13T05:02:30.991Z,95.01
2022-09-13T05:05:32.652Z,95.11
2022-09-13T05:08:34.514Z,95.37
2022-09-13T05:11:36.063Z,95.35
2022-09-13T05:14:37.646Z,100.00
2022-09-13T05:17:39.147Z,100.00
2022-09-13T05:20:40.739Z,100.00
2022-09-13T05:23:42.314Z,100.00
2022-09-13T05:26:43.890Z,100.00
2022-09-13T05:29:45.506Z,95.46
2022-09-13T05:32:47.050Z,94.10
2022-09-13T05:35:48.562Z,94.22
2022-09-13T05:38:58.166Z,93.77
2022-09-13T05:42:12.335Z,93.38
2022-09-13T05:45:14.831Z,93.80
2022-09-13T05:48:16.398Z,93.14
2022-09-13T05:51:19.118Z,93.57
2022-09-13T05:54:20.640Z,94.38
2022-09-13T05:57:22.190Z,94.31
2022-09-13T06:00:24.025Z,93.89
2022-09-13T06:03:28.003Z,94.57
2022-09-13T06:06:29.522Z,94.51
2022-09-13T06:09:31.114Z,94.02
2022-09-13T06:12:32.606Z,94.25
2022-09-13T06:15:34.165Z,93.64
2022-09-13T06:18:36.081Z,93.25
2022-09-13T06:21:37.687Z,92.74
2022-09-13T06:24:39.199Z,92.38
2022-09-13T06:27:40.899Z,93.01
2022-09-13T06:30:42.410Z,92.89
2022-09-13T06:33:43.998Z,93.25
2022-09-13T06:36:45.556Z,92.81
2022-09-13T06:39:47.252Z,92.89
2022-09-13T06:42:48.993Z,93.54
2022-09-13T06:45:50.762Z,95.14
2022-09-13T06:49:00.954Z,95.47
2022-09-13T06:52:02.607Z,95.49
2022-09-13T06:55:04.433Z,95.76
2022-09-13T06:58:11.009Z,95.63
2022-09-13T07:01:12.818Z,95.73
2022-09-13T07:04:15.606Z,95.81
2022-09-13T07:07:17.170Z,95.49
2022-09-13T07:10:18.791Z,95.48
2022-09-13T07:13:20.940Z,94.99
2022-09-13T07:16:23.606Z,94.27
2022-09-13T07:19:28.574Z,93.29
2022-09-13T07:22:30.241Z,90.42
2022-09-13T07:25:31.754Z,87.03
2022-09-13T07:28:35.506Z,85.76
2022-09-13T07:31:38.270Z,85.34
2022-09-13T07:34:39.830Z,85.19
2022-09-13T07:37:42.352Z,86.67
2022-09-13T07:40:44.767Z,88.53
2022-09-13T07:43:46.332Z,89.74
2022-09-13T07:46:48.054Z,89.39
2022-09-13T07:49:50.599Z,88.43
2022-09-13T07:52:52.165Z,87.75
2022-09-13T07:55:53.954Z,89.67
2022-09-13T07:58:55.689Z,88.51
2022-09-13T08:01:57.407Z,89.45
2022-09-13T08:04:59.423Z,82.33
2022-09-13T08:08:01.170Z,81.76
2022-09-13T08:11:03.765Z,80.93
2022-09-13T08:14:05.913Z,82.43
2022-09-13T08:17:07.506Z,79.97
2022-09-13T08:20:10.565Z,81.14
2022-09-13T08:23:12.565Z,82.75
2022-09-13T08:26:14.270Z,79.25
2022-09-13T08:29:15.887Z,78.17
2022-09-13T08:32:17.457Z,78.87
2022-09-13T08:35:19.090Z,79.13
2022-09-13T08:38:20.651Z,78.98
2022-09-13T08:41:22.204Z,78.74
2022-09-13T08:44:36.674Z,80.78
2022-09-13T08:47:47.193Z,78.87
2022-09-13T08:50:48.973Z,76.21
2022-09-13T08:53:50.549Z,75.46
2022-09-13T08:56:55.040Z,76.53
2022-09-13T08:59:59.639Z,75.16
2022-09-13T09:03:01.189Z,77.58
2022-09-13T09:06:02.714Z,76.79
2022-09-13T09:09:08.405Z,73.75
2022-09-13T09:12:17.854Z,72.07
2022-09-13T09:15:19.483Z,74.15
2022-09-13T09:18:23.646Z,75.23
2022-09-13T09:21:25.191Z,72.96
2022-09-13T09:24:26.734Z,72.97
2022-09-13T09:27:29.925Z,72.71
2022-09-13T09:30:38.227Z,72.50
2022-09-13T09:33:46.079Z,71.93
2022-09-13T09:37:00.659Z,71.86
2022-09-13T09:40:05.503Z,72.89
2022-09-13T09:43:12.361Z,70.82
2022-09-13T09:46:15.496Z,69.86
2022-09-13T09:49:40.343Z,70.65
2022-09-13T09:52:50.712Z,69.61
2022-09-13T09:56:12.732Z,66.32
2022-09-13T09:59:28.386Z,66.63
2022-09-13T10:02:30.509Z,66.92
2022-09-13T10:05:34.894Z,66.80
2022-09-13T10:08:37.481Z,63.09
2022-09-13T10:11:45.073Z,63.48
2022-09-13T10:14:46.557Z,65.39
2022-09-13T10:18:02.300Z,62.95
2022-09-13T10:21:06.738Z,61.84
2022-09-13T10:24:19.117Z,62.89
2022-09-13T10:27:40.020Z,64.09
2022-09-13T10:30:57.965Z,60.74
2022-09-13T10:34:00.398Z,63.24
2022-09-13T10:37:15.286Z,60.29
2022-09-13T10:40:23.055Z,64.95
2022-09-13T10:43:24.601Z,63.94
2022-09-13T10:46:26.683Z,60.51
2022-09-13T10:49:38.601Z,59.59
2022-09-13T10:52:44.633Z,60.14
2022-09-13T10:55:47.038Z,58.00
2022-09-13T10:58:48.694Z,60.49
2022-09-13T11:01:50.200Z,57.34
2022-09-13T11:04:57.658Z,57.48
2022-09-13T11:08:02.069Z,56.56
2022-09-13T11:11:21.866Z,57.96
2022-09-13T11:14:32.534Z,56.15
2022-09-13T11:17:34.150Z,56.25
2022-09-13T11:20:48.004Z,53.17
2022-09-13T11:23:49.685Z,54.79
2022-09-13T11:26:51.374Z,55.32
2022-09-13T11:30:04.027Z,55.87
2022-09-13T11:33:23.922Z,53.59
2022-09-13T11:36:44.102Z,54.47
2022-09-13T11:40:06.908Z,51.15
2022-09-13T11:43:14.562Z,51.23
2022-09-13T11:46:20.270Z,51.02
2022-09-13T11:49:25.452Z,49.51
2022-09-13T11:52:26.988Z,49.08
2022-09-13T11:55:54.671Z,48.74
2022-09-13T11:59:01.288Z,50.32
2022-09-13T12:02:04.500Z,48.91
2022-09-13T12:05:22.656Z,48.42
2022-09-13T12:08:29.996Z,48.67
2022-09-13T12:11:35.286Z,53.87
2022-09-13T12:14:39.971Z,52.38
2022-09-13T12:17:45.840Z,50.41
2022-09-13T12:20:48.526Z,50.96
2022-09-13T12:23:53.725Z,47.95
2022-09-13T12:27:06.152Z,46.82
2022-09-13T12:30:18.119Z,46.81
2022-09-13T12:33:20.026Z,46.42
2022-09-13T12:36:28.788Z,48.70
2022-09-13T12:39:42.658Z,46.66
2022-09-13T12:42:59.342Z,45.79
2022-09-13T12:46:00.905Z,44.50
2022-09-13T12:49:29.068Z,46.57
2022-09-13T12:52:32.469Z,45.22
2022-09-13T12:55:57.287Z,43.79
2022-09-13T12:59:18.592Z,44.47
2022-09-13T13:02:27.684Z,46.23
2022-09-13T13:05:31.089Z,45.30
2022-09-13T13:08:32.760Z,46.09
2022-09-13T13:11:45.314Z,44.49
2022-09-13T13:14:47.553Z,43.12
2022-09-13T13:17:52.775Z,43.64
2022-09-13T13:20:54.312Z,42.40
2022-09-13T13:24:14.389Z,43.22
2022-09-13T13:27:37.030Z,42.67
2022-09-13T13:30:40.343Z,42.94
2022-09-13T13:33:48.487Z,42.61
2022-09-13T13:36:53.670Z,43.63
2022-09-13T13:40:14.172Z,43.40
2022-09-13T13:43:26.410Z,45.36
2022-09-13T13:46:31.876Z,43.65
2022-09-13T13:49:34.518Z,42.17
2022-09-13T13:52:37.370Z,42.80
2022-09-13T13:55:42.002Z,42.41
2022-09-13T13:58:43.514Z,40.42
2022-09-13T14:01:46.289Z,39.83
2022-09-13T14:05:00.036Z,39.97
2022-09-13T14:08:14.698Z,41.90
2022-09-13T14:11:42.934Z,41.67
2022-09-13T14:15:00.556Z,40.85
2022-09-13T14:18:02.074Z,40.80
2022-09-13T14:21:05.130Z,41.99
2022-09-13T14:24:13.037Z,42.77
2022-09-13T14:27:18.675Z,40.13
2022-09-13T14:30:22.235Z,42.07
2022-09-13T14:33:31.440Z,39.95
2022-09-13T14:36:32.986Z,41.20
2022-09-13T14:39:34.610Z,39.25
2022-09-13T14:42:40.038Z,39.27
2022-09-13T14:45:41.558Z,38.91
2022-09-13T14:49:09.422Z,39.27
2022-09-13T14:52:31.258Z,38.92
2022-09-13T14:55:42.801Z,39.16
2022-09-13T14:58:45.888Z,40.52
2022-09-13T15:01:47.494Z,41.43
2022-09-13T15:04:51.678Z,41.11
2022-09-13T15:07:53.350Z,40.50
2022-09-13T15:10:56.835Z,39.00
2022-09-13T15:14:02.203Z,38.62
2022-09-13T15:17:06.838Z,38.41
2022-09-13T15:20:12.110Z,38.63
2022-09-13T15:23:15.070Z,37.96
2022-09-13T15:26:20.803Z,39.07
2022-09-13T15:29:22.383Z,37.75
2022-09-13T15:32:25.266Z,37.42
2022-09-13T15:35:27.126Z,40.63
2022-09-13T15:38:33.583Z,43.72
2022-09-13T15:41:38.046Z,43.09
2022-09-13T15:44:42.510Z,45.17
2022-09-13T15:47:51.397Z,46.06
2022-09-13T15:51:04.362Z,48.76
2022-09-13T15:54:09.245Z,45.22
2022-09-13T15:57:16.538Z,47.40
2022-09-13T16:00:22.438Z,49.33
2022-09-13T16:03:24.562Z,49.46
2022-09-13T16:06:26.981Z,51.11
2022-09-13T16:09:28.563Z,52.11
2022-09-13T16:12:30.125Z,48.59
2022-09-13T16:15:31.679Z,51.45
2022-09-13T16:18:33.332Z,55.78
2022-09-13T16:21:36.292Z,50.75
2022-09-13T16:24:38.136Z,48.21
2022-09-13T16:27:40.026Z,46.27
2022-09-13T16:30:41.586Z,44.86
2022-09-13T16:33:43.576Z,43.88
2022-09-13T16:36:45.154Z,44.06
2022-09-13T16:39:46.829Z,45.03
2022-09-13T16:42:48.432Z,45.77
2022-09-13T16:45:51.537Z,45.53
2022-09-13T16:48:54.735Z,46.96
2022-09-13T16:51:59.447Z,47.14
2022-09-13T16:55:01.414Z,50.89
2022-09-13T16:58:03.090Z,56.47
2022-09-13T17:01:05.717Z,59.63
2022-09-13T17:04:08.169Z,58.85
2022-09-13T17:07:09.925Z,55.32
2022-09-13T17:10:12.742Z,59.85
2022-09-13T17:13:14.380Z,61.05
2022-09-13T17:16:27.093Z,59.40
2022-09-13T17:19:36.818Z,57.88
2022-09-13T17:22:38.830Z,52.03
2022-09-13T17:25:41.242Z,51.24
2022-09-13T17:28:42.793Z,49.97
2022-09-13T17:31:44.424Z,51.27
2022-09-13T17:34:46.008Z,48.39
2022-09-13T17:37:47.585Z,49.90
2022-09-13T17:40:58.314Z,50.84
2022-09-13T17:43:59.833Z,50.97
2022-09-13T17:47:02.389Z,53.15
2022-09-13T17:50:03.993Z,54.32
2022-09-13T17:53:05.641Z,53.47
2022-09-13T17:56:07.677Z,55.00
2022-09-13T17:59:10.269Z,54.20
2022-09-13T18:02:12.133Z,54.60
2022-09-13T18:05:14.022Z,54.77
2022-09-13T18:08:15.625Z,56.39
2022-09-13T18:11:22.200Z,56.86
2022-09-13T18:14:26.553Z,58.31
2022-09-13T18:17:28.149Z,60.50
2022-09-13T18:20:29.663Z,62.54
2022-09-13T18:23:32.568Z,64.23
2022-09-13T18:26:34.718Z,66.37
2022-09-13T18:29:36.274Z,67.48
2022-09-13T18:32:37.782Z,69.33
2022-09-13T18:35:39.273Z,69.71
2022-09-13T18:38:41.727Z,69.53
2022-09-13T18:41:45.149Z,69.82
2022-09-13T18:44:46.661Z,69.55
2022-09-13T18:47:48.178Z,70.19
2022-09-13T18:50:49.809Z,70.92
2022-09-13T18:53:51.608Z,70.86
2022-09-13T18:56:53.547Z,71.55
2022-09-13T18:59:57.239Z,70.85
2022-09-13T19:03:11.840Z,71.36
2022-09-13T19:06:18.519Z,72.04
2022-09-13T19:09:20.998Z,72.93
2022-09-13T19:12:22.704Z,73.20
2022-09-13T19:15:24.223Z,72.26
2022-09-13T19:18:25.958Z,73.92
2022-09-13T19:21:29.610Z,73.22
2022-09-13T19:24:31.183Z,74.65
2022-09-13T19:27:32.786Z,75.39
2022-09-13T19:30:34.815Z,76.53
2022-09-13T19:33:36.875Z,77.43
2022-09-13T19:36:39.352Z,78.68
2022-09-13T19:39:40.999Z,79.31
2022-09-13T19:42:42.567Z,79.68
2022-09-13T19:45:44.149Z,79.54
2022-09-13T19:48:46.691Z,79.95
2022-09-13T19:51:51.940Z,80.12
2022-09-13T19:54:56.292Z,81.11
2022-09-13T19:57:58.046Z,81.12
2022-09-13T20:01:10.272Z,81.75
2022-09-13T20:04:13.152Z,81.95
2022-09-13T20:07:14.846Z,82.35
2022-09-13T20:10:16.455Z,82.38
2022-09-13T20:13:19.578Z,82.90
2022-09-13T20:16:25.029Z,82.50
2022-09-13T20:19:46.361Z,82.60
2022-09-13T20:22:48.671Z,82.76
2022-09-13T20:25:50.508Z,82.61
2022-09-13T20:29:00.101Z,83.09
2022-09-13T20:32:02.297Z,83.02
2022-09-13T20:35:05.242Z,82.90
2022-09-13T20:38:07.122Z,83.13
2022-09-13T20:41:10.609Z,84.15
2022-09-13T20:44:12.314Z,84.92
2022-09-13T20:47:13.839Z,85.80
2022-09-13T20:50:15.466Z,86.60
2022-09-13T20:53:17.036Z,87.26
2022-09-13T20:56:18.759Z,87.58
2022-09-13T20:59:21.266Z,87.51
2022-09-13T21:02:22.828Z,88.64
2022-09-13T21:05:24.410Z,90.04
2022-09-13T21:08:41.327Z,90.06
2022-09-13T21:11:43.986Z,89.98
2022-09-13T21:14:46.373Z,89.89
2022-09-13T21:17:47.934Z,89.92
2022-09-13T21:20:56.336Z,90.12
2022-09-13T21:23:58.582Z,90.44
2022-09-13T21:27:00.268Z,91.83
2022-09-13T21:30:02.153Z,91.85
2022-09-13T21:33:03.741Z,92.27
2022-09-13T21:36:05.629Z,92.45
2022-09-13T21:39:07.204Z,92.55
2022-09-13T21:42:09.028Z,92.64
2022-09-13T21:45:10.709Z,92.75
2022-09-13T21:48:14.189Z,93.00
2022-09-13T21:51:17.017Z,92.53
2022-09-13T21:54:19.130Z,92.36
2022-09-13T21:57:20.812Z,92.09
2022-09-13T22:00:23.320Z,92.12
2022-09-13T22:03:24.826Z,91.69
2022-09-13T22:06:30.198Z,91.64
2022-09-13T22:09:34.346Z,91.57
2022-09-13T22:12:36.053Z,92.55
2022-09-13T22:15:37.592Z,92.57
2022-09-13T22:18:39.354Z,92.15
2022-09-13T22:21:42.726Z,92.29
2022-09-13T22:24:46.144Z,93.64
2022-09-13T22:27:47.702Z,93.68
2022-09-13T22:30:49.386Z,94.06
2022-09-13T22:33:51.594Z,93.64
2022-09-13T22:36:54.435Z,93.48
2022-09-13T22:39:59.320Z,93.79
2022-09-13T22:43:00.910Z,94.04
2022-09-13T22:46:06.687Z,95.11
2022-09-13T22:49:09.093Z,94.23
2022-09-13T22:52:11.295Z,93.97
2022-09-13T22:55:12.847Z,93.98
2022-09-13T22:58:14.731Z,93.34
2022-09-13T23:01:17.328Z,93.34
2022-09-13T23:04:18.970Z,93.59
2022-09-13T23:07:20.526Z,93.69
2022-09-13T23:10:22.065Z,93.31
2022-09-13T23:13:23.724Z,93.93
2022-09-13T23:16:29.229Z,94.20
2022-09-13T23:19:30.838Z,94.53
2022-09-13T23:22:32.446Z,94.44
2022-09-13T23:25:34.119Z,94.44
2022-09-13T23:28:36.208Z,94.62
2022-09-13T23:31:40.757Z,94.33
2022-09-13T23:34:42.518Z,94.91
2022-09-13T23:37:47.973Z,95.00
2022-09-13T23:40:49.498Z,95.07
2022-09-13T23:43:51.177Z,95.72
2022-09-13T23:46:52.673Z,96.47
2022-09-13T23:49:54.231Z,96.45
2022-09-13T23:52:55.827Z,95.70
2022-09-13T23:55:57.399Z,95.60
2022-09-13T23:58:59.474Z,96.33
